sensor_id;sensor_type;location;lat;lon;timestamp;temperature;humidity
48686;DHT22;34485;51.536;3.816;2023-08-30T00:00:19;13.40;99.90
48686;DHT22;34485;51.536;3.816;2023-08-30T00:02:46;13.40;99.90
48686;DHT22;34485;51.536;3.816;2023-08-30T00:05:13;13.40;99.90
48686;DHT22;34485;51.536;3.816;2023-08-30T00:07:38;13.30;99.90
48686;DHT22;34485;51.536;3.816;2023-08-30T00:10:06;13.30;99.90
48686;DHT22;34485;51.536;3.816;2023-08-30T00:12:32;13.30;99.90
48686;DHT22;34485;51.536;3.816;2023-08-30T00:14:57;13.30;99.90
48686;DHT22;34485;51.536;3.816;2023-08-30T00:17:23;13.30;99.90
48686;DHT22;34485;51.536;3.816;2023-08-30T00:19:49;13.20;99.90
48686;DHT22;34485;51.536;3.816;2023-08-30T00:22:15;13.20;99.90
48686;DHT22;34485;51.536;3.816;2023-08-30T00:24:41;13.20;99.90
48686;DHT22;34485;51.536;3.816;2023-08-30T00:27:07;13.20;99.90
48686;DHT22;34485;51.536;3.816;2023-08-30T00:29:32;13.20;99.90
48686;DHT22;34485;51.536;3.816;2023-08-30T00:31:58;13.20;99.90
48686;DHT22;34485;51.536;3.816;2023-08-30T00:34:23;13.10;99.90
48686;DHT22;34485;51.536;3.816;2023-08-30T00:36:49;13.10;99.90
48686;DHT22;34485;51.536;3.816;2023-08-30T00:39:15;13.10;99.90
48686;DHT22;34485;51.536;3.816;2023-08-30T00:41:40;13.10;99.90
48686;DHT22;34485;51.536;3.816;2023-08-30T00:44:06;13.10;99.90
48686;DHT22;34485;51.536;3.816;2023-08-30T00:46:33;13.00;99.90
48686;DHT22;34485;51.536;3.816;2023-08-30T00:49:00;13.00;99.90
48686;DHT22;34485;51.536;3.816;2023-08-30T00:51:26;13.00;99.90
48686;DHT22;34485;51.536;3.816;2023-08-30T00:53:54;13.00;99.90
48686;DHT22;34485;51.536;3.816;2023-08-30T00:56:20;13.00;99.90
48686;DHT22;34485;51.536;3.816;2023-08-30T00:58:47;13.00;99.90
48686;DHT22;34485;51.536;3.816;2023-08-30T01:01:15;12.90;99.90
48686;DHT22;34485;51.536;3.816;2023-08-30T01:03:41;12.90;99.90
48686;DHT22;34485;51.536;3.816;2023-08-30T01:06:06;12.90;99.90
48686;DHT22;34485;51.536;3.816;2023-08-30T01:08:33;12.90;99.90
48686;DHT22;34485;51.536;3.816;2023-08-30T01:11:21;12.90;99.90
48686;DHT22;34485;51.536;3.816;2023-08-30T01:16:31;12.90;99.90
48686;DHT22;34485;51.536;3.816;2023-08-30T01:18:59;12.90;99.90
48686;DHT22;34485;51.536;3.816;2023-08-30T01:21:50;12.90;99.90
48686;DHT22;34485;51.536;3.816;2023-08-30T01:24:29;12.80;99.90
48686;DHT22;34485;51.536;3.816;2023-08-30T01:27:13;12.80;99.90
48686;DHT22;34485;51.536;3.816;2023-08-30T01:29:43;12.90;99.90
48686;DHT22;34485;51.536;3.816;2023-08-30T01:32:10;12.90;99.90
48686;DHT22;34485;51.536;3.816;2023-08-30T01:34:38;12.90;99.90
48686;DHT22;34485;51.536;3.816;2023-08-30T01:37:07;12.90;99.90
48686;DHT22;34485;51.536;3.816;2023-08-30T01:39:35;13.00;99.90
48686;DHT22;34485;51.536;3.816;2023-08-30T01:42:02;13.00;99.90
48686;DHT22;34485;51.536;3.816;2023-08-30T01:44:30;13.10;99.90
48686;DHT22;34485;51.536;3.816;2023-08-30T01:46:57;13.10;99.90
48686;DHT22;34485;51.536;3.816;2023-08-30T01:49:24;13.20;99.90
48686;DHT22;34485;51.536;3.816;2023-08-30T01:51:51;13.30;99.90
48686;DHT22;34485;51.536;3.816;2023-08-30T01:54:18;13.30;99.90
48686;DHT22;34485;51.536;3.816;2023-08-30T01:56:47;13.40;99.90
48686;DHT22;34485;51.536;3.816;2023-08-30T01:59:13;13.40;99.90
48686;DHT22;34485;51.536;3.816;2023-08-30T02:01:38;13.50;99.90
48686;DHT22;34485;51.536;3.816;2023-08-30T02:04:04;13.50;99.90
48686;DHT22;34485;51.536;3.816;2023-08-30T02:06:32;13.60;99.90
48686;DHT22;34485;51.536;3.816;2023-08-30T02:11:49;13.70;99.90
48686;DHT22;34485;51.536;3.816;2023-08-30T02:14:17;13.70;99.90
48686;DHT22;34485;51.536;3.816;2023-08-30T02:16:45;13.80;99.90
48686;DHT22;34485;51.536;3.816;2023-08-30T02:19:11;13.90;99.90
48686;DHT22;34485;51.536;3.816;2023-08-30T02:21:40;13.90;99.90
48686;DHT22;34485;51.536;3.816;2023-08-30T02:24:06;13.90;99.90
48686;DHT22;34485;51.536;3.816;2023-08-30T02:26:31;13.90;99.90
48686;DHT22;34485;51.536;3.816;2023-08-30T02:28:57;13.90;99.90
48686;DHT22;34485;51.536;3.816;2023-08-30T02:31:22;13.90;99.90
48686;DHT22;34485;51.536;3.816;2023-08-30T02:33:48;13.90;99.90
48686;DHT22;34485;51.536;3.816;2023-08-30T02:36:14;13.90;99.90
48686;DHT22;34485;51.536;3.816;2023-08-30T02:38:39;13.90;99.90
48686;DHT22;34485;51.536;3.816;2023-08-30T02:41:05;13.80;99.90
48686;DHT22;34485;51.536;3.816;2023-08-30T02:43:30;13.90;99.90
48686;DHT22;34485;51.536;3.816;2023-08-30T02:45:56;13.90;99.90
48686;DHT22;34485;51.536;3.816;2023-08-30T02:48:22;13.90;99.90
48686;DHT22;34485;51.536;3.816;2023-08-30T02:50:47;14.00;99.90
48686;DHT22;34485;51.536;3.816;2023-08-30T02:53:13;14.00;99.90
48686;DHT22;34485;51.536;3.816;2023-08-30T02:55:39;14.00;99.90
48686;DHT22;34485;51.536;3.816;2023-08-30T02:58:04;14.00;99.90
48686;DHT22;34485;51.536;3.816;2023-08-30T03:00:30;14.00;99.90
48686;DHT22;34485;51.536;3.816;2023-08-30T03:02:55;14.10;99.90
48686;DHT22;34485;51.536;3.816;2023-08-30T03:05:21;14.20;99.90
48686;DHT22;34485;51.536;3.816;2023-08-30T03:07:46;14.20;99.90
48686;DHT22;34485;51.536;3.816;2023-08-30T03:10:12;14.20;99.90
48686;DHT22;34485;51.536;3.816;2023-08-30T03:12:38;14.20;99.90
48686;DHT22;34485;51.536;3.816;2023-08-30T03:15:04;14.20;99.90
48686;DHT22;34485;51.536;3.816;2023-08-30T03:17:30;14.30;99.90
48686;DHT22;34485;51.536;3.816;2023-08-30T03:19:56;14.30;99.90
48686;DHT22;34485;51.536;3.816;2023-08-30T03:22:22;14.40;99.90
48686;DHT22;34485;51.536;3.816;2023-08-30T03:24:48;14.40;99.90
48686;DHT22;34485;51.536;3.816;2023-08-30T03:27:15;14.40;99.90
48686;DHT22;34485;51.536;3.816;2023-08-30T03:29:40;14.40;99.90
48686;DHT22;34485;51.536;3.816;2023-08-30T03:32:06;14.40;99.90
48686;DHT22;34485;51.536;3.816;2023-08-30T03:34:32;14.40;99.90
48686;DHT22;34485;51.536;3.816;2023-08-30T03:36:57;14.40;99.90
48686;DHT22;34485;51.536;3.816;2023-08-30T03:39:23;14.40;99.90
48686;DHT22;34485;51.536;3.816;2023-08-30T03:41:50;14.40;99.90
48686;DHT22;34485;51.536;3.816;2023-08-30T03:44:15;14.40;99.90
48686;DHT22;34485;51.536;3.816;2023-08-30T03:46:41;14.30;99.90
48686;DHT22;34485;51.536;3.816;2023-08-30T03:49:07;14.30;99.90
48686;DHT22;34485;51.536;3.816;2023-08-30T03:51:32;14.30;99.90
48686;DHT22;34485;51.536;3.816;2023-08-30T03:53:58;14.20;99.90
48686;DHT22;34485;51.536;3.816;2023-08-30T03:56:23;14.20;99.90
48686;DHT22;34485;51.536;3.816;2023-08-30T03:58:49;14.10;99.90
48686;DHT22;34485;51.536;3.816;2023-08-30T04:01:15;14.10;99.90
48686;DHT22;34485;51.536;3.816;2023-08-30T04:03:40;14.10;99.90
48686;DHT22;34485;51.536;3.816;2023-08-30T04:06:06;14.00;99.90
48686;DHT22;34485;51.536;3.816;2023-08-30T04:08:32;14.00;99.90
48686;DHT22;34485;51.536;3.816;2023-08-30T04:10:57;14.00;99.90
48686;DHT22;34485;51.536;3.816;2023-08-30T04:13:23;14.00;99.90
48686;DHT22;34485;51.536;3.816;2023-08-30T04:15:49;13.90;99.90
48686;DHT22;34485;51.536;3.816;2023-08-30T04:18:16;14.00;99.90
48686;DHT22;34485;51.536;3.816;2023-08-30T04:20:45;14.00;99.90
48686;DHT22;34485;51.536;3.816;2023-08-30T04:23:11;14.00;99.90
48686;DHT22;34485;51.536;3.816;2023-08-30T04:25:37;14.00;99.90
48686;DHT22;34485;51.536;3.816;2023-08-30T04:28:03;14.10;99.90
48686;DHT22;34485;51.536;3.816;2023-08-30T04:30:29;14.20;99.90
48686;DHT22;34485;51.536;3.816;2023-08-30T04:32:54;14.10;99.90
48686;DHT22;34485;51.536;3.816;2023-08-30T04:35:20;14.30;99.90
48686;DHT22;34485;51.536;3.816;2023-08-30T04:37:46;14.20;99.90
48686;DHT22;34485;51.536;3.816;2023-08-30T04:40:13;14.20;99.90
48686;DHT22;34485;51.536;3.816;2023-08-30T04:42:40;14.20;99.90
48686;DHT22;34485;51.536;3.816;2023-08-30T04:45:06;14.10;99.90
48686;DHT22;34485;51.536;3.816;2023-08-30T04:47:33;14.10;99.90
48686;DHT22;34485;51.536;3.816;2023-08-30T04:49:59;14.10;99.90
48686;DHT22;34485;51.536;3.816;2023-08-30T04:52:24;14.10;99.90
48686;DHT22;34485;51.536;3.816;2023-08-30T04:54:51;14.10;99.90
48686;DHT22;34485;51.536;3.816;2023-08-30T04:57:17;14.10;99.90
48686;DHT22;34485;51.536;3.816;2023-08-30T04:59:43;14.10;99.90
48686;DHT22;34485;51.536;3.816;2023-08-30T05:02:09;14.10;99.90
48686;DHT22;34485;51.536;3.816;2023-08-30T05:04:35;14.10;99.90
48686;DHT22;34485;51.536;3.816;2023-08-30T05:07:01;14.10;99.90
48686;DHT22;34485;51.536;3.816;2023-08-30T05:09:27;14.10;99.90
48686;DHT22;34485;51.536;3.816;2023-08-30T05:11:53;14.10;99.90
48686;DHT22;34485;51.536;3.816;2023-08-30T05:14:19;14.10;99.90
48686;DHT22;34485;51.536;3.816;2023-08-30T05:16:45;14.10;99.90
48686;DHT22;34485;51.536;3.816;2023-08-30T05:19:11;14.10;99.90
48686;DHT22;34485;51.536;3.816;2023-08-30T05:21:36;14.10;99.90
48686;DHT22;34485;51.536;3.816;2023-08-30T05:24:02;14.10;99.90
48686;DHT22;34485;51.536;3.816;2023-08-30T05:26:28;14.10;99.90
48686;DHT22;34485;51.536;3.816;2023-08-30T05:28:54;14.10;99.90
48686;DHT22;34485;51.536;3.816;2023-08-30T05:31:19;14.10;99.90
48686;DHT22;34485;51.536;3.816;2023-08-30T05:33:45;14.10;99.90
48686;DHT22;34485;51.536;3.816;2023-08-30T05:36:10;14.10;99.90
48686;DHT22;34485;51.536;3.816;2023-08-30T05:38:36;14.10;99.90
48686;DHT22;34485;51.536;3.816;2023-08-30T05:41:02;14.10;99.90
48686;DHT22;34485;51.536;3.816;2023-08-30T05:43:27;14.10;99.90
48686;DHT22;34485;51.536;3.816;2023-08-30T05:45:53;14.10;99.90
48686;DHT22;34485;51.536;3.816;2023-08-30T05:48:18;14.10;99.90
48686;DHT22;34485;51.536;3.816;2023-08-30T05:50:44;14.10;99.90
48686;DHT22;34485;51.536;3.816;2023-08-30T05:53:10;14.10;99.90
48686;DHT22;34485;51.536;3.816;2023-08-30T05:55:36;14.10;99.90
48686;DHT22;34485;51.536;3.816;2023-08-30T05:58:02;14.10;99.90
48686;DHT22;34485;51.536;3.816;2023-08-30T06:00:28;14.20;99.90
48686;DHT22;34485;51.536;3.816;2023-08-30T06:02:54;14.20;99.90
48686;DHT22;34485;51.536;3.816;2023-08-30T06:05:20;14.20;99.90
48686;DHT22;34485;51.536;3.816;2023-08-30T06:07:45;14.20;99.90
48686;DHT22;34485;51.536;3.816;2023-08-30T06:10:12;14.30;99.90
48686;DHT22;34485;51.536;3.816;2023-08-30T06:12:37;14.30;99.90
48686;DHT22;34485;51.536;3.816;2023-08-30T06:15:03;14.30;99.90
48686;DHT22;34485;51.536;3.816;2023-08-30T06:17:29;14.30;99.90
48686;DHT22;34485;51.536;3.816;2023-08-30T06:19:54;14.30;99.90
48686;DHT22;34485;51.536;3.816;2023-08-30T06:22:20;14.30;99.90
48686;DHT22;34485;51.536;3.816;2023-08-30T06:24:46;14.40;99.90
48686;DHT22;34485;51.536;3.816;2023-08-30T06:27:12;14.40;99.90
48686;DHT22;34485;51.536;3.816;2023-08-30T06:29:37;14.40;99.90
48686;DHT22;34485;51.536;3.816;2023-08-30T06:32:03;14.50;99.90
48686;DHT22;34485;51.536;3.816;2023-08-30T06:34:29;14.60;99.90
48686;DHT22;34485;51.536;3.816;2023-08-30T06:36:54;14.70;99.90
48686;DHT22;34485;51.536;3.816;2023-08-30T06:39:20;14.80;99.90
48686;DHT22;34485;51.536;3.816;2023-08-30T06:41:46;14.90;99.90
48686;DHT22;34485;51.536;3.816;2023-08-30T06:44:11;14.90;99.90
48686;DHT22;34485;51.536;3.816;2023-08-30T06:46:37;15.10;99.90
48686;DHT22;34485;51.536;3.816;2023-08-30T06:49:03;15.30;99.90
48686;DHT22;34485;51.536;3.816;2023-08-30T06:51:29;15.40;99.90
48686;DHT22;34485;51.536;3.816;2023-08-30T06:53:54;15.60;99.90
48686;DHT22;34485;51.536;3.816;2023-08-30T06:56:22;15.70;99.90
48686;DHT22;34485;51.536;3.816;2023-08-30T06:58:48;15.90;99.90
48686;DHT22;34485;51.536;3.816;2023-08-30T07:01:13;16.00;99.90
48686;DHT22;34485;51.536;3.816;2023-08-30T07:06:05;16.20;99.90
48686;DHT22;34485;51.536;3.816;2023-08-30T07:08:31;16.30;99.90
48686;DHT22;34485;51.536;3.816;2023-08-30T07:10:57;16.40;99.90
48686;DHT22;34485;51.536;3.816;2023-08-30T07:13:23;16.40;99.90
48686;DHT22;34485;51.536;3.816;2023-08-30T07:15:49;16.60;99.90
48686;DHT22;34485;51.536;3.816;2023-08-30T07:18:14;16.70;99.90
48686;DHT22;34485;51.536;3.816;2023-08-30T07:20:40;16.70;99.90
48686;DHT22;34485;51.536;3.816;2023-08-30T07:23:06;16.60;99.90
48686;DHT22;34485;51.536;3.816;2023-08-30T07:25:32;16.60;99.90
48686;DHT22;34485;51.536;3.816;2023-08-30T07:28:02;16.80;99.90
48686;DHT22;34485;51.536;3.816;2023-08-30T07:30:28;17.20;99.90
48686;DHT22;34485;51.536;3.816;2023-08-30T07:35:20;18.60;99.90
48686;DHT22;34485;51.536;3.816;2023-08-30T07:37:46;19.40;99.90
48686;DHT22;34485;51.536;3.816;2023-08-30T07:40:12;20.10;99.90
48686;DHT22;34485;51.536;3.816;2023-08-30T07:42:38;20.40;99.30
48686;DHT22;34485;51.536;3.816;2023-08-30T07:45:04;20.90;98.00
48686;DHT22;34485;51.536;3.816;2023-08-30T07:47:30;21.10;96.70
48686;DHT22;34485;51.536;3.816;2023-08-30T07:49:55;21.20;94.40
48686;DHT22;34485;51.536;3.816;2023-08-30T07:52:21;21.10;96.70
48686;DHT22;34485;51.536;3.816;2023-08-30T07:54:47;21.20;95.40
48686;DHT22;34485;51.536;3.816;2023-08-30T07:57:12;21.30;94.20
48686;DHT22;34485;51.536;3.816;2023-08-30T07:59:38;21.20;94.10
48686;DHT22;34485;51.536;3.816;2023-08-30T08:02:05;21.00;94.40
48686;DHT22;34485;51.536;3.816;2023-08-30T08:04:32;21.20;96.10
48686;DHT22;34485;51.536;3.816;2023-08-30T08:06:57;21.40;93.40
48686;DHT22;34485;51.536;3.816;2023-08-30T08:09:23;21.20;93.90
48686;DHT22;34485;51.536;3.816;2023-08-30T08:11:49;20.80;93.70
48686;DHT22;34485;51.536;3.816;2023-08-30T08:14:15;20.40;94.50
48686;DHT22;34485;51.536;3.816;2023-08-30T08:16:41;20.10;95.80
48686;DHT22;34485;51.536;3.816;2023-08-30T08:19:07;19.90;96.10
48686;DHT22;34485;51.536;3.816;2023-08-30T08:21:33;20.10;96.70
48686;DHT22;34485;51.536;3.816;2023-08-30T08:23:59;20.30;95.30
48686;DHT22;34485;51.536;3.816;2023-08-30T08:26:25;20.40;93.50
48686;DHT22;34485;51.536;3.816;2023-08-30T08:28:51;20.60;94.40
48686;DHT22;34485;51.536;3.816;2023-08-30T08:31:16;21.30;93.00
48686;DHT22;34485;51.536;3.816;2023-08-30T08:33:43;21.80;91.30
48686;DHT22;34485;51.536;3.816;2023-08-30T08:36:09;22.00;90.70
48686;DHT22;34485;51.536;3.816;2023-08-30T08:38:35;22.80;90.00
48686;DHT22;34485;51.536;3.816;2023-08-30T08:41:05;23.60;81.70
48686;DHT22;34485;51.536;3.816;2023-08-30T08:43:32;23.80;84.50
48686;DHT22;34485;51.536;3.816;2023-08-30T08:46:01;24.30;80.30
48686;DHT22;34485;51.536;3.816;2023-08-30T08:48:28;25.00;77.40
48686;DHT22;34485;51.536;3.816;2023-08-30T08:50:56;24.80;72.50
48686;DHT22;34485;51.536;3.816;2023-08-30T08:53:22;23.80;75.00
48686;DHT22;34485;51.536;3.816;2023-08-30T08:55:48;23.40;81.00
48686;DHT22;34485;51.536;3.816;2023-08-30T08:58:15;23.20;79.40
48686;DHT22;34485;51.536;3.816;2023-08-30T09:00:45;23.30;83.10
48686;DHT22;34485;51.536;3.816;2023-08-30T09:03:11;23.30;78.60
48686;DHT22;34485;51.536;3.816;2023-08-30T09:05:40;23.40;77.50
48686;DHT22;34485;51.536;3.816;2023-08-30T09:08:06;23.70;76.00
48686;DHT22;34485;51.536;3.816;2023-08-30T09:10:32;24.20;75.70
48686;DHT22;34485;51.536;3.816;2023-08-30T09:15:31;25.50;72.20
48686;DHT22;34485;51.536;3.816;2023-08-30T09:17:58;25.60;65.70
48686;DHT22;34485;51.536;3.816;2023-08-30T09:20:24;26.50;64.10
48686;DHT22;34485;51.536;3.816;2023-08-30T09:22:49;26.30;60.60
48686;DHT22;34485;51.536;3.816;2023-08-30T09:25:26;25.50;61.80
48686;DHT22;34485;51.536;3.816;2023-08-30T09:27:58;25.30;68.30
48686;DHT22;34485;51.536;3.816;2023-08-30T09:30:27;26.10;66.20
48686;DHT22;34485;51.536;3.816;2023-08-30T09:32:53;26.30;63.10
48686;DHT22;34485;51.536;3.816;2023-08-30T09:35:18;26.60;59.70
48686;DHT22;34485;51.536;3.816;2023-08-30T09:37:45;27.10;63.10
48686;DHT22;34485;51.536;3.816;2023-08-30T09:40:11;27.70;55.00
48686;DHT22;34485;51.536;3.816;2023-08-30T09:42:42;28.00;54.50
48686;DHT22;34485;51.536;3.816;2023-08-30T09:45:18;28.20;55.90
48686;DHT22;34485;51.536;3.816;2023-08-30T09:47:50;28.90;55.40
48686;DHT22;34485;51.536;3.816;2023-08-30T09:50:20;29.60;57.90
48686;DHT22;34485;51.536;3.816;2023-08-30T09:52:49;29.30;50.50
48686;DHT22;34485;51.536;3.816;2023-08-30T09:55:18;28.20;51.40
48686;DHT22;34485;51.536;3.816;2023-08-30T09:57:44;27.20;54.50
48686;DHT22;34485;51.536;3.816;2023-08-30T10:00:10;26.80;54.10
48686;DHT22;34485;51.536;3.816;2023-08-30T10:02:41;26.60;57.30
48686;DHT22;34485;51.536;3.816;2023-08-30T10:05:10;26.10;52.60
48686;DHT22;34485;51.536;3.816;2023-08-30T10:07:36;25.10;57.10
48686;DHT22;34485;51.536;3.816;2023-08-30T10:10:06;24.20;64.30
48686;DHT22;34485;51.536;3.816;2023-08-30T10:12:32;23.30;68.50
48686;DHT22;34485;51.536;3.816;2023-08-30T10:14:58;22.90;71.60
48686;DHT22;34485;51.536;3.816;2023-08-30T10:17:27;23.10;74.20
48686;DHT22;34485;51.536;3.816;2023-08-30T10:19:55;22.80;71.70
48686;DHT22;34485;51.536;3.816;2023-08-30T10:22:22;23.00;80.40
48686;DHT22;34485;51.536;3.816;2023-08-30T10:24:54;23.90;75.20
48686;DHT22;34485;51.536;3.816;2023-08-30T10:27:22;24.80;69.40
48686;DHT22;34485;51.536;3.816;2023-08-30T10:29:49;25.00;63.40
48686;DHT22;34485;51.536;3.816;2023-08-30T10:32:20;24.50;62.80
48686;DHT22;34485;51.536;3.816;2023-08-30T10:34:48;23.60;68.20
48686;DHT22;34485;51.536;3.816;2023-08-30T10:37:15;23.70;71.10
48686;DHT22;34485;51.536;3.816;2023-08-30T10:39:42;24.30;69.80
48686;DHT22;34485;51.536;3.816;2023-08-30T10:42:10;24.70;67.90
48686;DHT22;34485;51.536;3.816;2023-08-30T10:44:56;24.60;64.30
48686;DHT22;34485;51.536;3.816;2023-08-30T10:47:43;24.70;64.20
48686;DHT22;34485;51.536;3.816;2023-08-30T10:50:10;25.10;66.10
48686;DHT22;34485;51.536;3.816;2023-08-30T10:52:36;25.20;65.50
48686;DHT22;34485;51.536;3.816;2023-08-30T10:55:22;24.60;64.00
48686;DHT22;34485;51.536;3.816;2023-08-30T10:58:01;23.90;68.70
48686;DHT22;34485;51.536;3.816;2023-08-30T11:00:29;23.40;68.30
48686;DHT22;34485;51.536;3.816;2023-08-30T11:02:55;22.50;70.50
48686;DHT22;34485;51.536;3.816;2023-08-30T11:05:23;21.80;77.10
48686;DHT22;34485;51.536;3.816;2023-08-30T11:07:49;22.30;83.00
48686;DHT22;34485;51.536;3.816;2023-08-30T11:10:16;23.40;77.50
48686;DHT22;34485;51.536;3.816;2023-08-30T11:12:46;24.60;70.70
48686;DHT22;34485;51.536;3.816;2023-08-30T11:17:40;25.60;64.10
48686;DHT22;34485;51.536;3.816;2023-08-30T11:20:08;25.20;62.60
48686;DHT22;34485;51.536;3.816;2023-08-30T11:22:40;24.00;64.10
48686;DHT22;34485;51.536;3.816;2023-08-30T11:25:12;23.20;71.10
48686;DHT22;34485;51.536;3.816;2023-08-30T11:27:38;23.00;74.60
48686;DHT22;34485;51.536;3.816;2023-08-30T11:30:06;23.10;73.30
48686;DHT22;34485;51.536;3.816;2023-08-30T11:32:41;23.30;71.90
48686;DHT22;34485;51.536;3.816;2023-08-30T11:35:10;23.60;69.40
48686;DHT22;34485;51.536;3.816;2023-08-30T11:37:36;23.80;69.90
48686;DHT22;34485;51.536;3.816;2023-08-30T11:40:03;24.00;68.10
48686;DHT22;34485;51.536;3.816;2023-08-30T11:42:30;23.80;71.00
48686;DHT22;34485;51.536;3.816;2023-08-30T11:44:58;23.70;72.10
48686;DHT22;34485;51.536;3.816;2023-08-30T11:47:24;23.90;73.00
48686;DHT22;34485;51.536;3.816;2023-08-30T11:49:52;23.90;73.30
48686;DHT22;34485;51.536;3.816;2023-08-30T11:52:19;23.90;70.50
48686;DHT22;34485;51.536;3.816;2023-08-30T11:54:47;23.70;70.30
48686;DHT22;34485;51.536;3.816;2023-08-30T11:57:13;23.40;71.90
48686;DHT22;34485;51.536;3.816;2023-08-30T11:59:39;23.10;69.20
48686;DHT22;34485;51.536;3.816;2023-08-30T12:02:05;22.70;72.20
48686;DHT22;34485;51.536;3.816;2023-08-30T12:04:31;22.50;73.50
48686;DHT22;34485;51.536;3.816;2023-08-30T12:06:57;22.20;72.00
48686;DHT22;34485;51.536;3.816;2023-08-30T12:09:30;21.50;73.70
48686;DHT22;34485;51.536;3.816;2023-08-30T12:12:05;21.20;77.90
48686;DHT22;34485;51.536;3.816;2023-08-30T12:14:34;21.10;77.60
48686;DHT22;34485;51.536;3.816;2023-08-30T12:17:00;21.20;82.20
48686;DHT22;34485;51.536;3.816;2023-08-30T12:19:28;21.30;78.20
48686;DHT22;34485;51.536;3.816;2023-08-30T12:21:54;21.30;80.80
48686;DHT22;34485;51.536;3.816;2023-08-30T12:24:19;21.20;79.70
48686;DHT22;34485;51.536;3.816;2023-08-30T12:26:45;20.90;81.20
48686;DHT22;34485;51.536;3.816;2023-08-30T12:29:10;20.80;84.60
48686;DHT22;34485;51.536;3.816;2023-08-30T12:31:36;20.80;87.10
48686;DHT22;34485;51.536;3.816;2023-08-30T12:34:03;20.70;82.70
48686;DHT22;34485;51.536;3.816;2023-08-30T12:36:29;20.50;83.90
48686;DHT22;34485;51.536;3.816;2023-08-30T12:38:54;20.10;82.60
48686;DHT22;34485;51.536;3.816;2023-08-30T12:41:20;19.80;84.40
48686;DHT22;34485;51.536;3.816;2023-08-30T12:43:48;20.00;89.80
48686;DHT22;34485;51.536;3.816;2023-08-30T12:46:14;20.30;84.90
48686;DHT22;34485;51.536;3.816;2023-08-30T12:48:40;20.30;82.00
48686;DHT22;34485;51.536;3.816;2023-08-30T12:51:06;20.10;80.00
48686;DHT22;34485;51.536;3.816;2023-08-30T12:53:32;19.80;82.80
48686;DHT22;34485;51.536;3.816;2023-08-30T12:55:57;19.80;82.40
48686;DHT22;34485;51.536;3.816;2023-08-30T12:58:23;19.90;82.80
48686;DHT22;34485;51.536;3.816;2023-08-30T13:00:49;20.10;86.20
48686;DHT22;34485;51.536;3.816;2023-08-30T13:03:15;20.50;87.20
48686;DHT22;34485;51.536;3.816;2023-08-30T13:05:41;20.60;84.00
48686;DHT22;34485;51.536;3.816;2023-08-30T13:08:06;20.90;78.20
48686;DHT22;34485;51.536;3.816;2023-08-30T13:10:32;21.10;80.20
48686;DHT22;34485;51.536;3.816;2023-08-30T13:12:58;21.00;76.40
48686;DHT22;34485;51.536;3.816;2023-08-30T13:15:24;20.50;77.00
48686;DHT22;34485;51.536;3.816;2023-08-30T13:17:49;20.30;79.90
48686;DHT22;34485;51.536;3.816;2023-08-30T13:20:15;20.30;78.20
48686;DHT22;34485;51.536;3.816;2023-08-30T13:22:41;20.10;80.50
48686;DHT22;34485;51.536;3.816;2023-08-30T13:25:07;19.90;84.50
48686;DHT22;34485;51.536;3.816;2023-08-30T13:27:33;20.00;82.00
48686;DHT22;34485;51.536;3.816;2023-08-30T13:29:59;20.00;82.30
48686;DHT22;34485;51.536;3.816;2023-08-30T13:32:24;20.20;82.30
48686;DHT22;34485;51.536;3.816;2023-08-30T13:34:50;20.30;84.20
48686;DHT22;34485;51.536;3.816;2023-08-30T13:37:16;20.20;81.10
48686;DHT22;34485;51.536;3.816;2023-08-30T13:39:42;20.30;82.60
48686;DHT22;34485;51.536;3.816;2023-08-30T13:42:08;20.40;83.50
48686;DHT22;34485;51.536;3.816;2023-08-30T13:44:33;20.50;81.30
48686;DHT22;34485;51.536;3.816;2023-08-30T13:47:03;20.30;81.60
48686;DHT22;34485;51.536;3.816;2023-08-30T13:49:30;20.20;80.00
48686;DHT22;34485;51.536;3.816;2023-08-30T13:51:57;20.30;81.60
48686;DHT22;34485;51.536;3.816;2023-08-30T13:54:22;20.20;80.80
48686;DHT22;34485;51.536;3.816;2023-08-30T13:56:48;20.10;81.70
48686;DHT22;34485;51.536;3.816;2023-08-30T13:59:14;20.00;81.10
48686;DHT22;34485;51.536;3.816;2023-08-30T14:01:40;20.00;83.90
48686;DHT22;34485;51.536;3.816;2023-08-30T14:04:05;20.00;85.00
48686;DHT22;34485;51.536;3.816;2023-08-30T14:06:31;20.20;83.10
48686;DHT22;34485;51.536;3.816;2023-08-30T14:08:57;20.30;82.40
48686;DHT22;34485;51.536;3.816;2023-08-30T14:11:23;20.60;80.80
48686;DHT22;34485;51.536;3.816;2023-08-30T14:13:49;20.70;79.80
48686;DHT22;34485;51.536;3.816;2023-08-30T14:16:14;20.60;79.00
48686;DHT22;34485;51.536;3.816;2023-08-30T14:18:40;20.60;79.50
48686;DHT22;34485;51.536;3.816;2023-08-30T14:21:05;20.50;78.50
48686;DHT22;34485;51.536;3.816;2023-08-30T14:23:31;20.50;76.70
48686;DHT22;34485;51.536;3.816;2023-08-30T14:26:03;20.40;79.40
48686;DHT22;34485;51.536;3.816;2023-08-30T14:28:36;20.20;77.60
48686;DHT22;34485;51.536;3.816;2023-08-30T14:31:02;20.00;80.90
48686;DHT22;34485;51.536;3.816;2023-08-30T14:33:30;19.90;81.40
48686;DHT22;34485;51.536;3.816;2023-08-30T14:35:55;19.90;85.30
48686;DHT22;34485;51.536;3.816;2023-08-30T14:38:22;20.00;83.40
48686;DHT22;34485;51.536;3.816;2023-08-30T14:41:00;20.00;76.90
48686;DHT22;34485;51.536;3.816;2023-08-30T14:43:27;19.90;81.20
48686;DHT22;34485;51.536;3.816;2023-08-30T14:46:04;19.80;81.70
48686;DHT22;34485;51.536;3.816;2023-08-30T14:48:31;19.50;82.20
48686;DHT22;34485;51.536;3.816;2023-08-30T14:50:57;19.30;82.70
48686;DHT22;34485;51.536;3.816;2023-08-30T14:53:23;19.20;85.10
48686;DHT22;34485;51.536;3.816;2023-08-30T14:55:49;18.90;87.70
48686;DHT22;34485;51.536;3.816;2023-08-30T14:58:15;18.80;87.30
48686;DHT22;34485;51.536;3.816;2023-08-30T15:00:40;18.90;87.30
48686;DHT22;34485;51.536;3.816;2023-08-30T15:03:06;19.00;87.10
48686;DHT22;34485;51.536;3.816;2023-08-30T15:05:32;19.10;88.50
48686;DHT22;34485;51.536;3.816;2023-08-30T15:07:58;19.10;86.10
48686;DHT22;34485;51.536;3.816;2023-08-30T15:10:23;19.10;84.30
48686;DHT22;34485;51.536;3.816;2023-08-30T15:12:49;19.10;87.60
48686;DHT22;34485;51.536;3.816;2023-08-30T15:15:15;19.20;86.60
48686;DHT22;34485;51.536;3.816;2023-08-30T15:17:40;19.30;85.90
48686;DHT22;34485;51.536;3.816;2023-08-30T15:20:07;19.50;85.40
48686;DHT22;34485;51.536;3.816;2023-08-30T15:22:33;19.50;84.00
48686;DHT22;34485;51.536;3.816;2023-08-30T15:24:59;19.60;85.30
48686;DHT22;34485;51.536;3.816;2023-08-30T15:27:27;19.70;85.10
48686;DHT22;34485;51.536;3.816;2023-08-30T15:29:53;19.80;84.40
48686;DHT22;34485;51.536;3.816;2023-08-30T15:32:21;20.00;83.80
48686;DHT22;34485;51.536;3.816;2023-08-30T15:34:47;20.10;82.70
48686;DHT22;34485;51.536;3.816;2023-08-30T15:37:13;19.90;78.80
48686;DHT22;34485;51.536;3.816;2023-08-30T15:39:39;19.70;82.00
48686;DHT22;34485;51.536;3.816;2023-08-30T15:42:05;19.60;83.10